createdAt,value
2018-03-15T00:00:37.641Z,967.43
2018-03-15T00:01:37.567Z,967.41
2018-03-15T00:02:37.476Z,967.43
2018-03-15T00:03:37.402Z,967.42
2018-03-15T00:04:37.315Z,967.40
2018-03-15T00:05:37.240Z,967.39
2018-03-15T00:06:37.149Z,967.40
2018-03-15T00:07:37.073Z,967.41
2018-03-15T00:08:36.987Z,967.39
2018-03-15T00:09:36.909Z,967.41
2018-03-15T00:10:36.818Z,967.38
2018-03-15T00:11:36.742Z,967.38
2018-03-15T00:12:36.653Z,967.37
2018-03-15T00:13:36.579Z,967.36
2018-03-15T00:14:36.486Z,967.35
2018-03-15T00:15:36.414Z,967.33
2018-03-15T00:16:36.324Z,967.33
2018-03-15T00:17:36.247Z,967.32
2018-03-15T00:18:36.157Z,967.34
2018-03-15T00:19:36.084Z,967.30
2018-03-15T00:20:35.994Z,967.26
2018-03-15T00:21:35.918Z,967.25
2018-03-15T00:22:35.827Z,967.22
2018-03-15T00:23:35.752Z,967.22
2018-03-15T00:24:35.659Z,967.17
2018-03-15T00:25:35.584Z,967.18
2018-03-15T00:26:35.496Z,967.19
2018-03-15T00:27:35.422Z,967.17
2018-03-15T00:28:35.334Z,967.14
2018-03-15T00:29:35.258Z,967.14
2018-03-15T00:30:35.165Z,967.13
2018-03-15T00:31:35.094Z,967.08
2018-03-15T00:32:35.003Z,967.09
2018-03-15T00:33:34.926Z,967.07
2018-03-15T00:34:34.835Z,967.09
2018-03-15T00:35:34.763Z,967.04
2018-03-15T00:36:34.674Z,967.08
2018-03-15T00:37:34.596Z,967.05
2018-03-15T00:38:34.505Z,967.03
2018-03-15T00:39:34.449Z,967.02
2018-03-15T00:40:34.341Z,967.00
2018-03-15T00:41:34.266Z,967.01
2018-03-15T00:42:34.180Z,966.96
2018-03-15T00:43:34.102Z,966.95
2018-03-15T00:44:34.013Z,966.96
2018-03-15T00:45:33.937Z,966.96
2018-03-15T00:46:33.847Z,966.90
2018-03-15T00:47:33.768Z,966.92
2018-03-15T00:48:33.679Z,966.92
2018-03-15T00:49:33.605Z,966.93
2018-03-15T00:50:33.512Z,966.91
2018-03-15T00:51:33.442Z,966.92
2018-03-15T00:52:33.350Z,966.90
2018-03-15T00:53:33.323Z,966.87
2018-03-15T00:54:33.182Z,966.86
2018-03-15T00:55:33.111Z,966.83
2018-03-15T00:56:33.017Z,966.83
2018-03-15T00:57:32.945Z,966.78
2018-03-15T00:58:32.854Z,966.72
2018-03-15T00:59:32.774Z,966.70
2018-03-15T01:00:32.688Z,966.69
2018-03-15T01:01:32.614Z,966.66
2018-03-15T01:02:32.521Z,966.64
2018-03-15T01:03:32.449Z,966.62
2018-03-15T01:04:32.357Z,966.58
2018-03-15T01:05:32.285Z,966.57
2018-03-15T01:06:32.190Z,966.56
2018-03-15T01:07:32.116Z,966.58
2018-03-15T01:08:32.027Z,966.52
2018-03-15T01:09:31.949Z,966.52
2018-03-15T01:10:31.861Z,966.49
2018-03-15T01:11:31.786Z,966.52
2018-03-15T01:12:31.693Z,966.47
2018-03-15T01:13:31.623Z,966.44
2018-03-15T01:14:31.524Z,966.45
2018-03-15T01:15:31.454Z,966.46
2018-03-15T01:16:31.363Z,966.40
2018-03-15T01:17:31.290Z,966.41
2018-03-15T01:18:31.200Z,966.37
2018-03-15T01:19:31.121Z,966.33
2018-03-15T01:20:31.030Z,966.31
2018-03-15T01:21:30.958Z,966.29
2018-03-15T01:22:30.864Z,966.29
2018-03-15T01:23:30.793Z,966.26
2018-03-15T01:24:30.701Z,966.24
2018-03-15T01:25:30.621Z,966.22
2018-03-15T01:26:30.535Z,966.20
2018-03-15T01:27:30.458Z,966.19
2018-03-15T01:28:30.368Z,966.16
2018-03-15T01:29:30.293Z,966.18
2018-03-15T01:30:30.202Z,966.13
2018-03-15T01:31:30.130Z,966.10
2018-03-15T01:32:30.037Z,966.10
2018-03-15T01:33:29.962Z,966.10
2018-03-15T01:34:29.871Z,966.09
2018-03-15T01:35:29.795Z,966.06
2018-03-15T01:36:29.708Z,966.02
2018-03-15T01:37:29.632Z,966.02
2018-03-15T01:38:29.540Z,966.00
2018-03-15T01:39:29.465Z,965.96
2018-03-15T01:40:29.374Z,965.95
2018-03-15T01:41:29.302Z,965.93
2018-03-15T01:42:29.210Z,965.92
2018-03-15T01:43:29.133Z,965.88
2018-03-15T01:44:29.042Z,965.87
2018-03-15T01:45:28.970Z,965.84
2018-03-15T01:46:28.879Z,965.79
2018-03-15T01:47:28.802Z,965.81
2018-03-15T01:48:28.712Z,965.72
2018-03-15T01:49:28.645Z,965.75
2018-03-15T01:50:28.546Z,965.77
2018-03-15T01:51:28.471Z,965.74
2018-03-15T01:52:28.381Z,965.69
2018-03-15T01:53:28.307Z,965.71
2018-03-15T01:54:28.212Z,965.69
2018-03-15T01:55:28.142Z,965.64
2018-03-15T01:56:28.049Z,965.62
2018-03-15T01:57:27.977Z,965.63
2018-03-15T01:58:27.885Z,965.59
2018-03-15T01:59:27.805Z,965.58
2018-03-15T02:00:27.717Z,965.51
2018-03-15T02:01:28.637Z,965.58
2018-03-15T02:02:27.550Z,965.60
2018-03-15T02:03:27.477Z,965.56
2018-03-15T02:04:27.384Z,965.52
2018-03-15T02:05:27.310Z,965.52
2018-03-15T02:06:27.218Z,965.53
2018-03-15T02:07:27.136Z,965.47
2018-03-15T02:08:27.052Z,965.50
2018-03-15T02:09:26.979Z,965.49
2018-03-15T02:10:26.892Z,965.47
2018-03-15T02:11:26.811Z,965.47
2018-03-15T02:12:26.720Z,965.43
2018-03-15T02:13:26.652Z,965.41
2018-03-15T02:14:26.558Z,965.45
2018-03-15T02:15:26.480Z,965.48
2018-03-15T02:16:26.389Z,965.42
2018-03-15T02:17:26.314Z,965.46
2018-03-15T02:18:26.223Z,965.45
2018-03-15T02:19:26.144Z,965.48
2018-03-15T02:20:26.055Z,965.52
2018-03-15T02:21:25.991Z,965.52
2018-03-15T02:22:25.889Z,965.48
2018-03-15T02:23:25.813Z,965.48
2018-03-15T02:24:25.724Z,965.48
2018-03-15T02:25:25.646Z,965.49
2018-03-15T02:26:25.558Z,965.48
2018-03-15T02:27:25.483Z,965.50
2018-03-15T02:28:25.389Z,965.43
2018-03-15T02:29:25.331Z,965.51
2018-03-15T02:30:25.225Z,965.49
2018-03-15T02:31:25.150Z,965.46
2018-03-15T02:32:25.056Z,965.51
2018-03-15T02:33:24.986Z,965.47
2018-03-15T02:34:24.892Z,965.44
2018-03-15T02:35:24.820Z,965.48
2018-03-15T02:36:24.728Z,965.48
2018-03-15T02:37:24.651Z,965.45
2018-03-15T02:38:24.561Z,965.48
2018-03-15T02:39:24.490Z,965.48
2018-03-15T02:40:24.392Z,965.45
2018-03-15T02:41:24.318Z,965.47
2018-03-15T02:42:24.229Z,965.43
2018-03-15T02:43:24.154Z,965.44
2018-03-15T02:44:24.063Z,965.43
2018-03-15T02:45:23.988Z,965.43
2018-03-15T02:46:23.904Z,965.42
2018-03-15T02:47:23.819Z,965.41
2018-03-15T02:48:23.730Z,965.39
2018-03-15T02:49:23.654Z,965.39
2018-03-15T02:50:23.564Z,965.42
2018-03-15T02:51:23.490Z,965.43
2018-03-15T02:52:23.396Z,965.45
2018-03-15T02:53:23.320Z,965.49
2018-03-15T02:54:23.238Z,965.53
2018-03-15T02:55:23.154Z,965.51
2018-03-15T02:56:23.065Z,965.51
2018-03-15T02:57:22.990Z,965.50
2018-03-15T02:58:22.900Z,965.52
2018-03-15T02:59:22.823Z,965.47
2018-03-15T03:00:22.731Z,965.50
2018-03-15T03:01:22.658Z,965.52
2018-03-15T03:02:22.570Z,965.54
2018-03-15T03:03:22.492Z,965.52
2018-03-15T03:04:22.398Z,965.52
2018-03-15T03:05:22.326Z,965.51
2018-03-15T03:06:22.236Z,965.54
2018-03-15T03:07:22.158Z,965.56
2018-03-15T03:08:22.066Z,965.56
2018-03-15T03:09:21.988Z,965.55
2018-03-15T03:10:21.903Z,965.51
2018-03-15T03:11:21.824Z,965.54
2018-03-15T03:12:21.731Z,965.53
2018-03-15T03:13:21.661Z,965.55
2018-03-15T03:14:21.567Z,965.54
2018-03-15T03:15:21.490Z,965.50
2018-03-15T03:16:21.400Z,965.44
2018-03-15T03:17:21.324Z,965.51
2018-03-15T03:18:21.235Z,965.48
2018-03-15T03:19:21.160Z,965.52
2018-03-15T03:20:21.076Z,965.48
2018-03-15T03:21:20.995Z,965.50
2018-03-15T03:22:20.901Z,965.48
2018-03-15T03:23:20.825Z,965.49
2018-03-15T03:24:20.734Z,965.44
2018-03-15T03:25:20.659Z,965.45
2018-03-15T03:26:20.566Z,965.42
2018-03-15T03:27:20.494Z,965.42
2018-03-15T03:28:20.403Z,965.39
2018-03-15T03:29:20.328Z,965.38
2018-03-15T03:30:20.236Z,965.34
2018-03-15T03:31:20.168Z,965.33
2018-03-15T03:32:20.068Z,965.35
2018-03-15T03:33:19.994Z,965.36
2018-03-15T03:34:19.904Z,965.35
2018-03-15T03:35:19.828Z,965.35
2018-03-15T03:36:19.737Z,965.36
2018-03-15T03:37:19.661Z,965.34
2018-03-15T03:38:19.574Z,965.32
2018-03-15T03:39:19.495Z,965.34
2018-03-15T03:40:19.404Z,965.34
2018-03-15T03:41:19.324Z,965.34
2018-03-15T03:42:19.234Z,965.34
2018-03-15T03:43:19.160Z,965.33
2018-03-15T03:44:19.072Z,965.33
2018-03-15T03:45:18.995Z,965.34
2018-03-15T03:46:18.901Z,965.34
2018-03-15T03:47:18.826Z,965.30
2018-03-15T03:48:18.738Z,965.31
2018-03-15T03:49:18.662Z,965.30
2018-03-15T03:50:18.567Z,965.27
2018-03-15T03:51:18.494Z,965.28
2018-03-15T03:52:18.402Z,965.25
2018-03-15T03:53:18.326Z,965.21
2018-03-15T03:54:18.236Z,965.21
2018-03-15T03:55:18.162Z,965.22
2018-03-15T03:56:18.070Z,965.22
2018-03-15T03:57:17.994Z,965.19
2018-03-15T03:58:17.903Z,965.23
2018-03-15T03:59:17.829Z,965.22
2018-03-15T04:00:17.739Z,965.22
2018-03-15T04:01:17.662Z,965.22
2018-03-15T04:02:17.567Z,965.20
2018-03-15T04:03:17.543Z,965.21
2018-03-15T04:04:17.401Z,965.20
2018-03-15T04:05:17.328Z,965.17
2018-03-15T04:06:17.237Z,965.17
2018-03-15T04:07:17.160Z,965.14
2018-03-15T04:08:17.103Z,965.14
2018-03-15T04:09:16.995Z,965.13
2018-03-15T04:10:16.899Z,965.10
2018-03-15T04:11:16.827Z,965.11
2018-03-15T04:12:16.735Z,965.09
2018-03-15T04:13:16.659Z,965.14
2018-03-15T04:14:16.566Z,965.14
2018-03-15T04:15:16.490Z,965.15
2018-03-15T04:16:16.404Z,965.15
2018-03-15T04:17:16.324Z,965.16
2018-03-15T04:18:16.232Z,965.16
2018-03-15T04:19:16.160Z,965.17
2018-03-15T04:20:16.068Z,965.15
2018-03-15T04:21:15.991Z,965.10
2018-03-15T04:22:15.901Z,965.07
2018-03-15T04:23:15.827Z,965.08
2018-03-15T04:24:15.730Z,965.05
2018-03-15T04:25:15.656Z,965.01
2018-03-15T04:26:15.563Z,965.00
2018-03-15T04:27:15.492Z,964.96
2018-03-15T04:28:15.401Z,964.96
2018-03-15T04:29:15.320Z,964.99
2018-03-15T04:30:15.231Z,964.96
2018-03-15T04:31:15.155Z,964.94
2018-03-15T04:32:15.066Z,964.91
2018-03-15T04:33:14.987Z,964.89
2018-03-15T04:34:14.896Z,964.88
2018-03-15T04:35:14.825Z,964.84
2018-03-15T04:36:14.735Z,964.82
2018-03-15T04:37:14.659Z,964.81
2018-03-15T04:38:14.562Z,964.83
2018-03-15T04:39:14.492Z,964.81
2018-03-15T04:40:14.396Z,964.79
2018-03-15T04:41:14.320Z,964.76
2018-03-15T04:42:14.226Z,964.77
2018-03-15T04:43:14.172Z,964.78
2018-03-15T04:44:14.065Z,964.73
2018-03-15T04:45:14.078Z,964.72
2018-03-15T04:46:13.897Z,964.66
2018-03-15T04:47:13.822Z,964.68
2018-03-15T04:48:13.732Z,964.65
2018-03-15T04:49:15.744Z,964.60
2018-03-15T04:50:13.560Z,964.61
2018-03-15T04:51:15.557Z,964.59
2018-03-15T04:52:13.393Z,964.57
2018-03-15T04:53:13.414Z,964.58
2018-03-15T04:54:13.226Z,964.59
2018-03-15T04:55:13.222Z,964.59
2018-03-15T04:56:13.056Z,964.57
2018-03-15T04:57:12.983Z,964.54
2018-03-15T04:58:12.897Z,964.51
2018-03-15T04:59:12.835Z,964.54
2018-03-15T05:00:12.724Z,964.52
2018-03-15T05:01:12.754Z,964.52
2018-03-15T05:02:12.609Z,964.52
2018-03-15T05:03:12.576Z,964.56
2018-03-15T05:04:12.391Z,964.56
2018-03-15T05:05:12.364Z,964.59
2018-03-15T05:06:12.223Z,964.59
2018-03-15T05:07:12.173Z,964.57
2018-03-15T05:08:12.054Z,964.60
2018-03-15T05:09:12.086Z,964.56
2018-03-15T05:10:11.886Z,964.59
2018-03-15T05:11:11.895Z,964.60
2018-03-15T05:12:11.727Z,964.60
2018-03-15T05:13:11.703Z,964.61
2018-03-15T05:14:11.552Z,964.55
2018-03-15T05:15:11.509Z,964.52
2018-03-15T05:16:11.385Z,964.55
2018-03-15T05:17:11.414Z,964.54
2018-03-15T05:18:11.234Z,964.53
2018-03-15T05:19:11.226Z,964.50
2018-03-15T05:20:11.053Z,964.46
2018-03-15T05:21:11.037Z,964.44
2018-03-15T05:22:10.883Z,964.47
2018-03-15T05:23:10.844Z,964.43
2018-03-15T05:24:10.716Z,964.44
2018-03-15T05:25:10.684Z,964.42
2018-03-15T05:26:10.552Z,964.41
2018-03-15T05:27:10.563Z,964.35
2018-03-15T05:28:10.391Z,964.37
2018-03-15T05:29:10.309Z,964.35
2018-03-15T05:30:10.215Z,964.34
2018-03-15T05:31:10.166Z,964.33
2018-03-15T05:32:10.055Z,964.30
2018-03-15T05:33:09.970Z,964.30
2018-03-15T05:34:09.886Z,964.29
2018-03-15T05:35:10.810Z,964.30
2018-03-15T05:36:09.714Z,964.27
2018-03-15T05:37:09.637Z,964.27
2018-03-15T05:38:09.546Z,964.30
2018-03-15T05:39:09.515Z,964.31
2018-03-15T05:40:09.376Z,964.30
2018-03-15T05:41:09.327Z,964.25
2018-03-15T05:42:09.206Z,964.25
2018-03-15T05:43:09.236Z,964.20
2018-03-15T05:44:09.043Z,964.20
2018-03-15T05:45:09.042Z,964.21
2018-03-15T05:46:08.876Z,964.15
2018-03-15T05:47:08.854Z,964.18
2018-03-15T05:48:08.713Z,964.12
2018-03-15T05:49:08.659Z,964.17
2018-03-15T05:50:08.541Z,964.15
2018-03-15T05:51:08.571Z,964.16
2018-03-15T05:52:08.378Z,964.19
2018-03-15T05:53:08.376Z,964.20
2018-03-15T05:54:08.206Z,964.18
2018-03-15T05:55:08.127Z,964.18
2018-03-15T05:56:08.040Z,964.18
2018-03-15T05:57:07.964Z,964.22
2018-03-15T05:58:07.875Z,964.22
2018-03-15T05:59:07.797Z,964.23
2018-03-15T06:00:07.705Z,964.20
2018-03-15T06:01:07.632Z,964.23
2018-03-15T06:02:07.538Z,964.20
2018-03-15T06:03:07.458Z,964.18
2018-03-15T06:04:07.369Z,964.17
2018-03-15T06:05:07.295Z,964.16
2018-03-15T06:06:07.206Z,964.16
2018-03-15T06:07:07.126Z,964.14
2018-03-15T06:08:07.037Z,964.15
2018-03-15T06:09:07.052Z,964.15
2018-03-15T06:10:06.869Z,964.13
2018-03-15T06:11:06.794Z,964.10
2018-03-15T06:12:06.705Z,964.10
2018-03-15T06:13:06.666Z,964.13
2018-03-15T06:14:06.533Z,964.11
2018-03-15T06:15:06.458Z,964.08
2018-03-15T06:16:06.364Z,964.09
2018-03-15T06:17:06.291Z,964.07
2018-03-15T06:18:06.202Z,963.98
2018-03-15T06:19:06.123Z,963.98
2018-03-15T06:20:06.030Z,963.92
2018-03-15T06:21:05.958Z,963.89
2018-03-15T06:22:05.863Z,963.89
2018-03-15T06:23:05.788Z,963.87
2018-03-15T06:24:05.699Z,963.89
2018-03-15T06:25:05.621Z,963.87
2018-03-15T06:26:05.531Z,963.88
2018-03-15T06:27:05.488Z,963.89
2018-03-15T06:28:05.360Z,963.86
2018-03-15T06:29:05.284Z,963.86
2018-03-15T06:30:05.194Z,963.83
2018-03-15T06:31:05.119Z,963.79
2018-03-15T06:32:05.026Z,963.84
2018-03-15T06:33:04.953Z,963.82
2018-03-15T06:34:04.912Z,963.83
2018-03-15T06:35:04.786Z,963.80
2018-03-15T06:36:04.697Z,963.77
2018-03-15T06:37:04.618Z,963.74
2018-03-15T06:38:04.525Z,963.77
2018-03-15T06:39:04.449Z,963.72
2018-03-15T06:40:04.359Z,963.71
2018-03-15T06:41:04.287Z,963.68
2018-03-15T06:42:04.192Z,963.67
2018-03-15T06:43:04.116Z,963.66
2018-03-15T06:44:04.025Z,963.65
2018-03-15T06:45:03.950Z,963.66
2018-03-15T06:46:03.856Z,963.63
2018-03-15T06:47:03.782Z,963.59
2018-03-15T06:48:03.691Z,963.52
2018-03-15T06:49:03.616Z,963.50
2018-03-15T06:50:03.527Z,963.51
2018-03-15T06:51:03.448Z,963.46
2018-03-15T06:52:03.357Z,963.44
2018-03-15T06:53:03.286Z,963.42
2018-03-15T06:54:03.198Z,963.42
2018-03-15T06:55:03.112Z,963.42
2018-03-15T06:56:03.024Z,963.42
2018-03-15T06:57:02.952Z,963.41
2018-03-15T06:58:02.854Z,963.41
2018-03-15T06:59:02.780Z,963.39
2018-03-15T07:00:02.692Z,963.35
2018-03-15T07:01:02.615Z,963.37
2018-03-15T07:02:02.528Z,963.37
2018-03-15T07:03:02.486Z,963.35
2018-03-15T07:04:02.357Z,963.33
2018-03-15T07:05:02.283Z,963.33
2018-03-15T07:06:02.191Z,963.34
2018-03-15T07:07:02.119Z,963.35
2018-03-15T07:08:02.026Z,963.40
2018-03-15T07:09:01.951Z,963.40
2018-03-15T07:10:01.871Z,963.40
2018-03-15T07:11:01.784Z,963.46
2018-03-15T07:12:01.695Z,963.46
2018-03-15T07:13:01.619Z,963.50
2018-03-15T07:14:01.530Z,963.49
2018-03-15T07:15:01.451Z,963.53
2018-03-15T07:16:01.361Z,963.51
2018-03-15T07:17:01.288Z,963.51
2018-03-15T07:18:01.195Z,963.50
2018-03-15T07:19:01.121Z,963.49
2018-03-15T07:20:01.031Z,963.54
2018-03-15T07:21:00.956Z,963.57
2018-03-15T07:22:00.864Z,963.58
2018-03-15T07:23:00.789Z,963.58
2018-03-15T07:24:00.698Z,963.59
2018-03-15T07:25:00.625Z,963.59
2018-03-15T07:26:00.533Z,963.55
2018-03-15T07:27:00.458Z,963.59
2018-03-15T07:28:00.368Z,963.52
2018-03-15T07:29:00.294Z,963.52
2018-03-15T07:30:00.205Z,963.48
2018-03-15T07:31:00.129Z,963.45
2018-03-15T07:32:00.041Z,963.39
2018-03-15T07:32:59.964Z,963.36
2018-03-15T07:33:59.876Z,963.34
2018-03-15T07:34:59.799Z,963.31
2018-03-15T07:35:59.719Z,963.33
2018-03-15T07:36:59.639Z,963.21
2018-03-15T07:37:59.545Z,963.19
2018-03-15T07:38:59.482Z,963.18
2018-03-15T07:39:59.379Z,963.17
2018-03-15T07:40:59.347Z,963.12
2018-03-15T07:41:59.220Z,963.11
2018-03-15T07:42:59.144Z,963.08
2018-03-15T07:43:59.054Z,963.10
2018-03-15T07:44:58.980Z,963.13
2018-03-15T07:45:58.892Z,963.13
2018-03-15T07:46:58.819Z,963.12
2018-03-15T07:47:58.729Z,963.16
2018-03-15T07:48:58.655Z,963.16
2018-03-15T07:49:58.563Z,963.17
2018-03-15T07:50:58.510Z,963.18
2018-03-15T07:51:58.402Z,963.16
2018-03-15T07:52:58.328Z,963.13
2018-03-15T07:53:58.240Z,963.13
2018-03-15T07:54:58.229Z,963.12
2018-03-15T07:55:58.113Z,963.16
2018-03-15T07:56:58.046Z,963.16
2018-03-15T07:57:57.919Z,963.14
2018-03-15T07:58:57.948Z,963.19
2018-03-15T07:59:57.752Z,963.17
2018-03-15T08:00:57.758Z,963.16
2018-03-15T08:01:57.617Z,963.15
2018-03-15T08:02:57.565Z,963.20
2018-03-15T08:03:57.431Z,963.20
2018-03-15T08:04:57.370Z,963.21
2018-03-15T08:05:57.270Z,963.27
2018-03-15T08:06:57.282Z,963.21
2018-03-15T08:07:57.112Z,963.22
2018-03-15T08:08:57.090Z,963.15
2018-03-15T08:09:56.952Z,963.09
2018-03-15T08:10:56.899Z,963.14
2018-03-15T08:11:56.791Z,963.10
2018-03-15T08:12:56.810Z,963.09
2018-03-15T08:13:56.626Z,963.10
2018-03-15T08:14:56.620Z,963.06
2018-03-15T08:15:56.469Z,963.00
2018-03-15T08:16:56.427Z,963.06
2018-03-15T08:17:56.311Z,963.02
2018-03-15T08:18:56.335Z,963.04
2018-03-15T08:19:56.151Z,963.02
2018-03-15T08:20:56.145Z,962.97
2018-03-15T08:21:55.992Z,962.99
2018-03-15T08:22:55.954Z,963.00
2018-03-15T08:23:55.837Z,963.02
2018-03-15T08:24:55.866Z,963.11
2018-03-15T08:25:55.682Z,963.00
2018-03-15T08:26:55.672Z,963.06
2018-03-15T08:27:55.518Z,963.12
2018-03-15T08:28:55.477Z,963.06
2018-03-15T08:29:55.380Z,963.03
2018-03-15T08:30:55.394Z,963.12
2018-03-15T08:31:55.206Z,963.06
2018-03-15T08:32:55.201Z,962.97
2018-03-15T08:33:55.046Z,963.02
2018-03-15T08:34:54.975Z,962.96
2018-03-15T08:35:54.886Z,962.93
2018-03-15T08:36:54.919Z,963.03
2018-03-15T08:37:54.736Z,963.02
2018-03-15T08:38:54.780Z,963.03
2018-03-15T08:39:54.574Z,963.05
2018-03-15T08:40:54.538Z,963.05
2018-03-15T08:41:54.414Z,963.06
2018-03-15T08:42:54.442Z,963.07
2018-03-15T08:43:54.259Z,963.04
2018-03-15T08:44:54.255Z,963.16
2018-03-15T08:45:54.099Z,963.08
2018-03-15T08:46:54.063Z,963.07
2018-03-15T08:47:53.945Z,963.05
2018-03-15T08:48:53.974Z,963.07
2018-03-15T08:49:53.791Z,963.05
2018-03-15T08:50:53.784Z,963.03
2018-03-15T08:51:53.631Z,962.98
2018-03-15T08:52:53.597Z,962.98
2018-03-15T08:53:53.479Z,963.16
2018-03-15T08:54:53.406Z,962.94
2018-03-15T08:55:53.320Z,962.99
2018-03-15T08:56:53.312Z,962.92
2018-03-15T08:57:53.164Z,963.01
2018-03-15T08:58:53.120Z,962.98
2018-03-15T08:59:53.014Z,962.95
2018-03-15T09:00:53.034Z,962.95
2018-03-15T09:01:52.853Z,962.85
2018-03-15T09:02:52.873Z,962.82
2018-03-15T09:03:52.696Z,962.83
2018-03-15T09:04:52.806Z,962.79
2018-03-15T09:05:52.548Z,962.89
2018-03-15T09:06:52.556Z,962.89
2018-03-15T09:07:52.390Z,962.79
2018-03-15T09:08:52.418Z,962.81
2018-03-15T09:09:52.234Z,962.87
2018-03-15T09:10:52.181Z,962.77
2018-03-15T09:11:52.080Z,962.81
2018-03-15T09:12:52.085Z,962.68
2018-03-15T09:13:51.918Z,962.84
2018-03-15T09:14:51.895Z,962.74
2018-03-15T09:15:51.763Z,962.72
2018-03-15T09:16:51.806Z,962.74
2018-03-15T09:17:51.610Z,962.78
2018-03-15T09:18:51.622Z,962.83
2018-03-15T09:19:51.459Z,962.79
2018-03-15T09:20:51.422Z,962.81
2018-03-15T09:21:51.309Z,962.75
2018-03-15T09:22:51.331Z,962.74
2018-03-15T09:23:51.148Z,962.71
2018-03-15T09:24:51.141Z,962.77
2018-03-15T09:25:50.991Z,962.71
2018-03-15T09:26:50.950Z,962.77
2018-03-15T09:27:50.835Z,962.71
2018-03-15T09:28:50.866Z,962.71
2018-03-15T09:29:50.682Z,962.76
2018-03-15T09:30:50.672Z,962.66
2018-03-15T09:31:50.527Z,962.68
2018-03-15T09:32:50.477Z,962.76
2018-03-15T09:33:50.370Z,962.65
2018-03-15T09:34:50.384Z,962.67
2018-03-15T09:35:50.217Z,962.71
2018-03-15T09:36:50.193Z,962.58
2018-03-15T09:37:50.059Z,962.65
2018-03-15T09:38:50.005Z,962.61
2018-03-15T09:39:49.906Z,962.64
2018-03-15T09:40:49.836Z,962.61
2018-03-15T09:41:49.751Z,962.58
2018-03-15T09:42:49.722Z,962.61
2018-03-15T09:43:49.594Z,962.59
2018-03-15T09:44:49.636Z,962.60
2018-03-15T09:45:49.453Z,962.64
2018-03-15T09:46:49.442Z,962.65
2018-03-15T09:47:49.287Z,962.65
2018-03-15T09:48:49.254Z,962.60
2018-03-15T09:49:49.149Z,962.55
2018-03-15T09:50:49.168Z,962.57
2018-03-15T09:51:48.979Z,962.53
2018-03-15T09:52:48.969Z,962.46
2018-03-15T09:53:48.834Z,962.50
2018-03-15T09:54:48.777Z,962.51
2018-03-15T09:55:48.673Z,962.46
2018-03-15T09:56:48.684Z,962.42
2018-03-15T09:57:48.516Z,962.46
2018-03-15T09:58:48.499Z,962.48
2018-03-15T09:59:48.362Z,962.43
2018-03-15T10:00:48.307Z,962.39
2018-03-15T10:01:48.208Z,962.40
2018-03-15T10:02:48.216Z,962.34
2018-03-15T10:03:48.067Z,962.34
2018-03-15T10:04:48.025Z,962.27
2018-03-15T10:05:47.954Z,962.21
2018-03-15T10:06:47.937Z,962.22
2018-03-15T10:07:47.752Z,962.26
2018-03-15T10:08:47.746Z,962.27
2018-03-15T10:09:47.593Z,962.18
2018-03-15T10:10:47.554Z,962.22
2018-03-15T10:11:47.437Z,962.29
2018-03-15T10:12:48.388Z,962.29
2018-03-15T10:13:47.288Z,962.24
2018-03-15T10:14:49.324Z,962.24
2018-03-15T10:15:47.137Z,962.15
2018-03-15T10:16:49.132Z,962.13
2018-03-15T10:17:46.979Z,962.08
2018-03-15T10:18:46.993Z,962.09
2018-03-15T10:19:46.828Z,962.11
2018-03-15T10:20:46.801Z,962.08
2018-03-15T10:21:46.722Z,962.03
2018-03-15T10:22:46.715Z,962.02
2018-03-15T10:23:46.526Z,961.97
2018-03-15T10:24:46.522Z,961.99
2018-03-15T10:25:46.368Z,961.96
2018-03-15T10:26:46.327Z,962.06
2018-03-15T10:27:46.212Z,962.00
2018-03-15T10:28:46.150Z,961.91
2018-03-15T10:29:46.059Z,961.93
2018-03-15T10:30:46.046Z,961.84
2018-03-15T10:31:45.911Z,961.90
2018-03-15T10:32:45.862Z,961.86
2018-03-15T10:33:45.758Z,961.87
2018-03-15T10:34:45.782Z,961.85
2018-03-15T10:35:45.608Z,961.79
2018-03-15T10:36:45.577Z,961.76
2018-03-15T10:37:45.451Z,961.75
2018-03-15T10:38:45.487Z,961.73
2018-03-15T10:39:45.305Z,961.72
2018-03-15T10:40:45.292Z,961.75
2018-03-15T10:41:45.154Z,961.65
2018-03-15T10:42:45.101Z,961.65
2018-03-15T10:43:45.009Z,961.67
2018-03-15T10:44:45.010Z,961.62
2018-03-15T10:45:44.847Z,961.62
2018-03-15T10:46:44.819Z,961.58
2018-03-15T10:47:44.695Z,961.60
2018-03-15T10:48:44.733Z,961.57
2018-03-15T10:49:44.546Z,961.56
2018-03-15T10:50:44.548Z,961.53
2018-03-15T10:51:44.392Z,961.52
2018-03-15T10:52:44.349Z,961.47
2018-03-15T10:53:44.238Z,961.50
2018-03-15T10:54:44.172Z,961.52
2018-03-15T10:55:44.088Z,961.47
2018-03-15T10:56:44.071Z,961.45
2018-03-15T10:57:43.939Z,961.38
2018-03-15T10:58:43.875Z,961.41
2018-03-15T10:59:43.785Z,961.41
2018-03-15T11:00:43.787Z,961.41
2018-03-15T11:01:43.633Z,961.37
2018-03-15T11:02:43.596Z,961.39
2018-03-15T11:03:43.479Z,961.31
2018-03-15T11:04:43.504Z,961.23
2018-03-15T11:05:43.333Z,961.26
2018-03-15T11:06:43.315Z,961.24
2018-03-15T11:07:43.177Z,961.26
2018-03-15T11:08:43.132Z,961.28
2018-03-15T11:09:43.026Z,961.25
2018-03-15T11:10:42.960Z,961.25
2018-03-15T11:11:42.877Z,961.25
2018-03-15T11:12:42.842Z,961.31
2018-03-15T11:13:42.725Z,961.30
2018-03-15T11:14:42.752Z,961.30
2018-03-15T11:15:42.575Z,961.27
2018-03-15T11:16:42.559Z,961.35
2018-03-15T11:17:42.421Z,961.38
2018-03-15T11:18:42.368Z,961.35
2018-03-15T11:19:42.276Z,961.33
2018-03-15T11:20:42.282Z,961.30
2018-03-15T11:21:42.119Z,961.19
2018-03-15T11:22:42.090Z,961.25
2018-03-15T11:23:41.981Z,961.12
2018-03-15T11:24:42.000Z,961.11
2018-03-15T11:25:41.818Z,961.08
2018-03-15T11:26:41.812Z,961.05
2018-03-15T11:27:41.667Z,960.94
2018-03-15T11:28:41.617Z,960.93
2018-03-15T11:29:41.523Z,960.91
2018-03-15T11:30:41.524Z,960.92
2018-03-15T11:31:41.364Z,960.83
2018-03-15T11:32:41.333Z,960.81
2018-03-15T11:33:41.218Z,960.82
2018-03-15T11:34:41.245Z,960.77
2018-03-15T11:35:41.063Z,960.81
2018-03-15T11:36:41.052Z,960.92
2018-03-15T11:37:40.916Z,960.89
2018-03-15T11:38:40.846Z,960.83
2018-03-15T11:39:40.763Z,960.84
2018-03-15T11:40:40.777Z,960.86
2018-03-15T11:41:40.610Z,960.84
2018-03-15T11:42:40.583Z,960.85
2018-03-15T11:43:40.459Z,960.90
2018-03-15T11:44:40.495Z,960.85
2018-03-15T11:45:40.310Z,960.83
2018-03-15T11:46:40.301Z,960.81
2018-03-15T11:47:40.161Z,960.75
2018-03-15T11:48:40.110Z,960.68
2018-03-15T11:49:40.008Z,960.69
2018-03-15T11:50:40.059Z,960.71
2018-03-15T11:51:39.860Z,960.64
2018-03-15T11:52:39.830Z,960.62
2018-03-15T11:53:39.709Z,960.55
2018-03-15T11:54:39.740Z,960.56
2018-03-15T11:55:39.560Z,960.49
2018-03-15T11:56:39.550Z,960.52
2018-03-15T11:57:39.409Z,960.52
2018-03-15T11:58:39.357Z,960.52
2018-03-15T11:59:39.265Z,960.42
2018-03-15T12:00:39.330Z,960.50
2018-03-15T12:01:39.142Z,960.42
2018-03-15T12:02:39.076Z,960.42
2018-03-15T12:03:38.958Z,960.43
2018-03-15T12:04:38.998Z,960.32
2018-03-15T12:05:38.819Z,960.34
2018-03-15T12:06:38.794Z,960.39
2018-03-15T12:07:38.702Z,960.32
2018-03-15T12:08:39.428Z,960.36
2018-03-15T12:09:38.514Z,960.33
2018-03-15T12:10:38.515Z,960.23
2018-03-15T12:11:38.362Z,960.24
2018-03-15T12:12:38.323Z,960.34
2018-03-15T12:13:38.217Z,960.23
2018-03-15T12:14:38.235Z,960.21
2018-03-15T12:15:38.064Z,960.16
2018-03-15T12:16:38.044Z,960.17
2018-03-15T12:17:37.914Z,960.13
2018-03-15T12:18:37.954Z,960.10
2018-03-15T12:19:37.766Z,960.07
2018-03-15T12:20:37.764Z,960.08
2018-03-15T12:21:37.616Z,960.04
2018-03-15T12:22:37.568Z,960.09
2018-03-15T12:23:37.469Z,959.99
2018-03-15T12:24:37.482Z,959.90
2018-03-15T12:25:37.316Z,959.94
2018-03-15T12:26:37.297Z,959.86
2018-03-15T12:27:37.166Z,959.87